Time;durP1;ratioP1;P1;durP2;ratioP2;P2;SDS_P1;SDS_P2;PMS_P1;PMS_P2;Temp;Humidity;BMP_temperature;BMP_pressure;BME280_temperature;BME280_humidity;BME280_pressure;Samples;Min_cycle;Max_cycle;Signal;HPM_P1;HPM_P2
2022/08/04 00:00:26;;;;;;;2.53;1.40;;;25.50;92.30;;;;;;5098334;28;20126;-34
2022/08/04 00:03:01;;;;;;;2.00;1.40;;;25.40;92.20;;;;;;5109675;28;20019;-36
2022/08/04 00:05:49;;;;;;;1.30;1.20;;;25.40;92.30;;;;;;5109356;28;20024;-34
2022/08/04 00:08:30;;;;;;;1.67;1.30;;;25.30;92.30;;;;;;5109426;28;20023;-35
2022/08/04 00:10:59;;;;;;;1.85;1.20;;;25.30;92.40;;;;;;5109705;28;20019;-35
2022/08/04 00:13:27;;;;;;;1.77;1.48;;;25.30;92.40;;;;;;5108383;28;20019;-34
2022/08/04 00:16:03;;;;;;;1.52;1.38;;;25.30;92.50;;;;;;5109369;28;20031;-34
2022/08/04 00:18:41;;;;;;;2.10;1.40;;;25.30;92.50;;;;;;5109277;28;20028;-34
2022/08/04 00:21:10;;;;;;;1.70;1.60;;;25.20;92.50;;;;;;5108043;28;20059;-35
2022/08/04 00:23:38;;;;;;;2.03;1.50;;;25.20;92.60;;;;;;5108874;28;20020;-35
2022/08/04 00:26:04;;;;;;;2.10;1.50;;;25.20;92.60;;;;;;5109287;28;20031;-34
2022/08/04 00:28:29;;;;;;;2.38;1.50;;;25.20;92.70;;;;;;5108870;28;20596;-35
2022/08/04 00:30:55;;;;;;;2.63;1.75;;;25.20;92.70;;;;;;5109123;28;20028;-34
2022/08/04 00:33:21;;;;;;;1.80;1.50;;;25.10;92.70;;;;;;5108875;28;20098;-34
2022/08/04 00:35:48;;;;;;;2.05;1.50;;;25.10;92.80;;;;;;5108135;28;20027;-35
2022/08/04 00:38:16;;;;;;;2.17;1.48;;;25.10;92.80;;;;;;5109129;28;20022;-36
2022/08/04 00:40:49;;;;;;;2.20;1.83;;;25.10;92.90;;;;;;5108754;28;20089;-35
2022/08/04 00:43:31;;;;;;;2.72;1.70;;;25.00;92.90;;;;;;5109295;28;20378;-33
2022/08/04 00:46:16;;;;;;;1.70;1.52;;;25.00;93.00;;;;;;5105660;28;20081;-35
2022/08/04 00:49:07;;;;;;;1.48;1.38;;;25.00;93.00;;;;;;5108112;28;20031;-35
2022/08/04 00:52:20;;;;;;;2.85;1.73;;;25.00;93.10;;;;;;5098960;28;20035;-35
2022/08/04 00:55:18;;;;;;;2.05;1.85;;;24.90;93.10;;;;;;5085613;28;20151;-33
2022/08/04 00:58:20;;;;;;;2.25;1.35;;;24.90;93.20;;;;;;5108443;28;20028;-35
2022/08/04 01:01:00;;;;;;;1.73;1.48;;;24.90;93.30;;;;;;5105455;28;20095;-33
2022/08/04 01:03:56;;;;;;;1.73;1.63;;;24.90;93.30;;;;;;5107803;28;20032;-33
2022/08/04 01:06:43;;;;;;;1.60;1.40;;;24.80;93.30;;;;;;5107814;28;20024;-34
2022/08/04 01:09:41;;;;;;;4.13;1.70;;;24.80;93.30;;;;;;5107449;28;20055;-35
2022/08/04 01:12:09;;;;;;;1.63;1.52;;;24.70;93.40;;;;;;5097375;28;20038;-34
2022/08/04 01:14:59;;;;;;;2.28;2.05;;;24.70;93.40;;;;;;5108001;28;20043;-35
2022/08/04 01:17:35;;;;;;;2.25;1.80;;;24.70;93.40;;;;;;5097785;28;20031;-33
2022/08/04 01:20:08;;;;;;;3.08;1.75;;;24.70;93.40;;;;;;5108479;28;20012;-34
2022/08/04 01:23:08;;;;;;;2.85;2.13;;;24.70;93.40;;;;;;5108096;28;20027;-34
2022/08/04 01:25:47;;;;;;;3.20;1.90;;;24.70;93.40;;;;;;5107746;28;20264;-35
2022/08/04 01:28:46;;;;;;;1.67;1.42;;;24.70;93.50;;;;;;5107421;28;20140;-36
2022/08/04 01:31:33;;;;;;;3.22;1.90;;;24.70;93.50;;;;;;5106875;28;20023;-35
2022/08/04 01:34:02;;;;;;;2.00;1.50;;;24.70;93.50;;;;;;5107460;28;20032;-35
2022/08/04 01:36:34;;;;;;;7.53;2.13;;;24.60;93.50;;;;;;5107698;28;20115;-35
2022/08/04 01:39:39;;;;;;;3.30;1.73;;;24.60;93.50;;;;;;5107757;28;20024;-34
2022/08/04 01:41:51;;;;;;;1.73;1.60;;;24.60;93.60;;;;;;5107502;28;20051;-34
2022/08/04 01:44:17;;;;;;;2.45;1.60;;;24.60;93.60;;;;;;5106852;28;20192;-34
2022/08/04 01:46:46;;;;;;;2.25;1.60;;;24.60;93.60;;;;;;5106930;28;20493;-34
2022/08/04 01:49:12;;;;;;;2.45;1.48;;;24.50;93.70;;;;;;5108253;28;20055;-35
2022/08/04 01:51:39;;;;;;;1.85;1.60;;;24.50;93.70;;;;;;5106810;28;20794;-34
2022/08/04 01:54:06;;;;;;;2.75;1.75;;;24.50;93.80;;;;;;5107742;28;20042;-35
2022/08/04 01:56:31;;;;;;;2.47;1.67;;;24.40;93.80;;;;;;5095232;28;20028;-34
2022/08/04 01:58:58;;;;;;;3.08;2.00;;;24.40;93.80;;;;;;5106538;28;20016;-33
2022/08/04 02:01:24;;;;;;;2.92;1.75;;;24.40;93.80;;;;;;5107377;28;20023;-35
2022/08/04 02:03:49;;;;;;;3.55;1.67;;;24.40;93.80;;;;;;5107553;28;20026;-34
2022/08/04 02:06:24;;;;;;;2.90;1.70;;;24.50;93.80;;;;;;5106953;28;20019;-35
2022/08/04 02:08:54;;;;;;;2.97;1.85;;;24.40;93.80;;;;;;5107178;28;20484;-34
2022/08/04 02:11:21;;;;;;;2.65;1.60;;;24.40;93.90;;;;;;5107201;28;20051;-35
2022/08/04 02:13:56;;;;;;;4.75;1.85;;;24.40;93.90;;;;;;5105924;28;20028;-34
2022/08/04 02:16:46;;;;;;;3.35;1.65;;;24.40;93.90;;;;;;5106959;28;20126;-36
2022/08/04 02:19:22;;;;;;;2.40;1.85;;;24.40;93.90;;;;;;5106848;28;20030;-34
2022/08/04 02:21:55;;;;;;;3.63;2.00;;;24.40;93.90;;;;;;5106478;28;20027;-34
2022/08/04 02:24:26;;;;;;;3.67;1.67;;;24.30;93.90;;;;;;5107469;28;20084;-35
2022/08/04 02:26:54;;;;;;;2.83;2.00;;;24.30;94.00;;;;;;5106360;28;20058;-33
2022/08/04 02:29:28;;;;;;;2.47;1.65;;;24.30;94.00;;;;;;5106668;28;20475;-34
2022/08/04 02:32:03;;;;;;;1.83;1.55;;;24.20;94.00;;;;;;5106532;28;20403;-35
2022/08/04 02:34:37;;;;;;;2.95;2.00;;;24.20;94.10;;;;;;5102570;28;20043;-34
2022/08/04 02:37:03;;;;;;;2.45;2.00;;;24.20;94.10;;;;;;5106244;28;20023;-35
2022/08/04 02:39:34;;;;;;;1.85;1.50;;;24.20;94.20;;;;;;5106259;28;20031;-35
2022/08/04 02:42:02;;;;;;;2.63;1.90;;;24.20;94.20;;;;;;5106216;28;20424;-34
2022/08/04 02:44:30;;;;;;;2.35;1.73;;;24.20;94.20;;;;;;5106125;28;20027;-35
2022/08/04 02:46:57;;;;;;;3.95;2.08;;;24.20;94.20;;;;;;5106446;28;20023;-36
2022/08/04 02:49:23;;;;;;;3.55;2.03;;;24.20;94.20;;;;;;5106526;28;20023;-35
2022/08/04 02:51:53;;;;;;;3.63;2.00;;;24.10;94.20;;;;;;5106243;28;20023;-34
2022/08/04 02:54:24;;;;;;;2.63;1.60;;;24.10;94.30;;;;;;5105969;28;20509;-34
2022/08/04 02:56:52;;;;;;;3.47;1.50;;;24.10;94.30;;;;;;5105795;28;20024;-34
2022/08/04 02:59:22;;;;;;;2.75;1.73;;;24.10;94.30;;;;;;5106361;28;20032;-34
2022/08/04 03:01:47;;;;;;;4.85;1.90;;;24.10;94.30;;;;;;5104898;28;20028;-35
2022/08/04 03:04:35;;;;;;;2.67;1.77;;;24.00;94.30;;;;;;5106253;28;20026;-35
2022/08/04 03:07:46;;;;;;;2.40;1.52;;;24.00;94.40;;;;;;5106744;28;20499;-35
2022/08/04 03:10:41;;;;;;;1.90;1.70;;;24.00;94.40;;;;;;5105079;28;20028;-35
2022/08/04 03:13:30;;;;;;;2.13;1.52;;;23.90;94.40;;;;;;5106074;28;20471;-35
2022/08/04 03:16:05;;;;;;;2.78;1.60;;;23.90;94.40;;;;;;5103262;28;20035;-35
2022/08/04 03:18:38;;;;;;;5.47;1.50;;;23.90;94.40;;;;;;5106429;28;20023;-43
2022/08/04 03:21:21;;;;;;;4.03;1.65;;;23.90;94.40;;;;;;5106217;28;20073;-36
2022/08/04 03:24:23;;;;;;;3.22;1.48;;;23.90;94.50;;;;;;5104710;28;20089;-34
2022/08/04 03:27:03;;;;;;;2.42;1.38;;;23.90;94.50;;;;;;5096702;28;20055;-34
2022/08/04 03:30:03;;;;;;;2.47;1.70;;;23.90;94.50;;;;;;5105871;28;20016;-35
2022/08/04 03:33:02;;;;;;;2.40;1.50;;;23.80;94.50;;;;;;5105899;28;20027;-35
2022/08/04 03:36:10;;;;;;;4.25;2.33;;;23.80;94.50;;;;;;5105787;28;20092;-35
2022/08/04 03:39:19;;;;;;;5.82;1.70;;;23.80;94.50;;;;;;5084876;28;20032;-34
2022/08/04 03:42:02;;;;;;;4.07;1.45;;;23.80;94.60;;;;;;5102751;28;20532;-34
2022/08/04 03:44:46;;;;;;;3.47;1.67;;;23.80;94.60;;;;;;5105230;28;20055;-35
2022/08/04 03:47:21;;;;;;;2.08;1.33;;;23.80;94.60;;;;;;5105850;28;20071;-43
2022/08/04 03:50:20;;;;;;;3.17;1.40;;;23.80;94.60;;;;;;5105422;28;20027;-44
2022/08/04 03:53:13;;;;;;;2.53;1.60;;;23.70;94.70;;;;;;5096212;28;20068;-43
2022/08/04 03:55:57;;;;;;;;;;;23.70;94.70;;;;;;5105717;28;20067;-44
2022/08/04 03:58:48;;;;;;;6.28;1.60;;;23.70;94.70;;;;;;5105294;28;19907;-44
2022/08/04 04:01:14;;;;;;;3.72;1.67;;;23.70;94.70;;;;;;5106032;28;20111;-44
2022/08/04 04:04:22;;;;;;;3.05;1.60;;;23.60;94.80;;;;;;5105323;28;20114;-44
2022/08/04 04:07:06;;;;;;;5.18;2.25;;;23.50;95.00;;;;;;5104511;28;20031;-45
2022/08/04 04:09:54;;;;;;;4.25;1.90;;;23.50;95.20;;;;;;5084968;28;20024;-44
2022/08/04 04:12:47;;;;;;;6.18;1.95;;;23.50;95.30;;;;;;5103788;28;20112;-43
2022/08/04 04:15:34;;;;;;;2.00;1.42;;;23.50;95.40;;;;;;5105990;28;20036;-44
2022/08/04 04:18:28;;;;;;;2.15;1.45;;;23.50;95.50;;;;;;5105310;28;20114;-43
2022/08/04 04:21:25;;;;;;;2.92;1.80;;;23.40;95.60;;;;;;5105233;28;20049;-44
2022/08/04 04:24:12;;;;;;;3.55;1.90;;;23.40;95.70;;;;;;5100410;28;20721;-44
2022/08/04 04:27:00;;;;;;;2.85;1.60;;;23.40;95.70;;;;;;5108508;28;20036;-45
2022/08/04 04:29:29;;;;;;;3.10;2.05;;;23.30;95.70;;;;;;5109557;28;20028;-44
2022/08/04 04:32:09;;;;;;;4.05;1.95;;;23.30;95.80;;;;;;5108583;28;20019;-44
2022/08/04 04:34:46;;;;;;;2.88;1.60;;;23.20;95.90;;;;;;5107933;28;20028;-45
2022/08/04 04:37:30;;;;;;;4.30;2.03;;;23.20;95.90;;;;;;5109038;28;20028;-44
2022/08/04 04:40:13;;;;;;;4.80;1.95;;;23.10;95.90;;;;;;5108598;28;20119;-44
2022/08/04 04:43:04;;;;;;;3.35;1.67;;;23.10;96.00;;;;;;5108592;28;20004;-44
2022/08/04 04:45:35;;;;;;;4.82;1.73;;;23.10;96.00;;;;;;5108686;28;20064;-44
2022/08/04 04:48:15;;;;;;;3.65;1.92;;;23.00;96.00;;;;;;5107671;28;20099;-44
2022/08/04 04:50:52;;;;;;;5.68;2.10;;;23.00;96.00;;;;;;5108809;28;20123;-44
2022/08/04 04:53:29;;;;;;;4.47;2.63;;;22.90;96.10;;;;;;5108715;28;20046;-44
2022/08/04 04:56:18;;;;;;;3.42;1.85;;;22.90;96.20;;;;;;5100858;28;20379;-44
2022/08/04 04:58:43;;;;;;;3.30;1.98;;;22.90;96.20;;;;;;5058490;28;20970;-45
2022/08/04 05:01:21;;;;;;;3.47;2.60;;;23.00;96.20;;;;;;5107786;28;20036;-44
2022/08/04 05:03:55;;;;;;;3.20;2.30;;;22.90;96.40;;;;;;5107840;28;20042;-44
2022/08/04 05:06:46;;;;;;;5.28;2.25;;;22.90;96.30;;;;;;5088565;28;20468;-44
2022/08/04 05:09:36;;;;;;;4.43;3.17;;;23.00;96.40;;;;;;5106320;28;20102;-43
2022/08/04 05:12:33;;;;;;;3.00;2.60;;;22.90;96.50;;;;;;5108024;28;20032;-43
2022/08/04 05:15:02;;;;;;;3.50;2.45;;;23.00;96.60;;;;;;5107581;28;20039;-44
2022/08/04 05:17:36;;;;;;;3.33;2.40;;;23.00;96.60;;;;;;5107161;28;20023;-43
2022/08/04 05:20:11;;;;;;;3.13;2.30;;;23.00;96.60;;;;;;5105609;28;20027;-44
2022/08/04 05:22:46;;;;;;;4.03;2.70;;;23.10;96.60;;;;;;5107185;28;20561;-44
2022/08/04 05:25:22;;;;;;;3.38;2.45;;;23.10;96.60;;;;;;5104735;28;20032;-44
2022/08/04 05:28:15;;;;;;;3.97;2.40;;;23.10;96.60;;;;;;5107225;28;20067;-43
2022/08/04 05:30:48;;;;;;;3.78;2.50;;;23.20;96.80;;;;;;5106653;28;20027;-44
2022/08/04 05:33:24;;;;;;;3.13;2.38;;;23.30;96.50;;;;;;5107522;28;20031;-44
2022/08/04 05:35:54;;;;;;;5.63;2.60;;;23.40;96.50;;;;;;5107290;28;20040;-43
2022/08/04 05:38:23;;;;;;;3.30;2.33;;;23.40;96.40;;;;;;5107250;28;20147;-43
2022/08/04 05:40:49;;;;;;;6.05;3.15;;;23.50;96.40;;;;;;5107338;28;20476;-45
2022/08/04 05:43:16;;;;;;;4.90;2.60;;;23.60;96.30;;;;;;5107305;28;20444;-43
2022/08/04 05:45:46;;;;;;;3.97;2.30;;;23.70;96.20;;;;;;5108046;28;20024;-44
2022/08/04 05:48:13;;;;;;;2.15;1.95;;;23.80;96.20;;;;;;5107143;28;20028;-44
2022/08/04 05:50:38;;;;;;;4.32;2.50;;;23.90;96.00;;;;;;5104855;28;20035;-45
2022/08/04 05:53:05;;;;;;;3.45;2.20;;;24.00;95.90;;;;;;5107241;28;20019;-45
2022/08/04 05:55:32;;;;;;;4.25;2.20;;;24.10;95.80;;;;;;5106230;28;20031;-45
2022/08/04 05:57:59;;;;;;;3.65;2.13;;;24.20;95.80;;;;;;5106212;28;20030;-44
2022/08/04 06:00:26;;;;;;;3.72;2.58;;;24.30;95.70;;;;;;5105863;28;20030;-44
2022/08/04 06:02:53;;;;;;;3.08;2.30;;;24.30;95.70;;;;;;5106034;28;20476;-45
2022/08/04 06:05:19;;;;;;;4.10;1.92;;;24.40;95.60;;;;;;5105441;28;20019;-43
2022/08/04 06:07:46;;;;;;;4.82;2.50;;;24.40;95.60;;;;;;5106092;28;20126;-43
2022/08/04 06:10:12;;;;;;;2.47;2.10;;;24.60;95.50;;;;;;5106246;28;20020;-45
2022/08/04 06:12:45;;;;;;;4.03;2.15;;;24.60;95.50;;;;;;5105279;28;20076;-44
2022/08/04 06:15:13;;;;;;;3.67;1.98;;;24.70;95.40;;;;;;5105846;28;20527;-44
2022/08/04 06:17:45;;;;;;;2.53;1.95;;;24.80;95.40;;;;;;5103768;27;20051;-44
2022/08/04 06:20:13;;;;;;;4.07;2.20;;;24.90;95.30;;;;;;5104633;28;20395;-44
2022/08/04 06:22:41;;;;;;;3.63;1.95;;;25.00;95.20;;;;;;5106437;28;20020;-44
2022/08/04 06:25:10;;;;;;;4.32;2.10;;;25.00;95.20;;;;;;5105437;28;20059;-45
2022/08/04 06:27:36;;;;;;;2.33;1.85;;;25.10;95.20;;;;;;5104530;28;20086;-44
2022/08/04 06:30:02;;;;;;;3.38;2.58;;;25.10;95.10;;;;;;5105159;28;20483;-44
2022/08/04 06:32:46;;;;;;;3.15;1.85;;;25.20;95.10;;;;;;5105346;28;20027;-45
2022/08/04 06:35:15;;;;;;;2.10;1.83;;;25.20;95.10;;;;;;5105660;28;20032;-44
2022/08/04 06:37:42;;;;;;;4.00;1.80;;;25.30;95.00;;;;;;5105558;28;20032;-44
2022/08/04 06:40:09;;;;;;;4.15;2.33;;;25.40;94.90;;;;;;5104727;28;20016;-45
2022/08/04 06:42:36;;;;;;;3.33;2.10;;;25.50;94.80;;;;;;5104560;28;20102;-44
2022/08/04 06:45:03;;;;;;;3.58;2.00;;;25.50;94.70;;;;;;5105588;28;20027;-45
2022/08/04 06:47:30;;;;;;;4.25;2.30;;;25.60;94.70;;;;;;5105098;28;20019;-43
2022/08/04 06:49:56;;;;;;;3.05;1.95;;;25.70;94.60;;;;;;5105612;28;20180;-44
2022/08/04 06:52:22;;;;;;;4.82;1.92;;;25.70;94.50;;;;;;5106831;28;20020;-43
2022/08/04 06:54:49;;;;;;;3.17;1.80;;;25.80;94.50;;;;;;5105134;28;20056;-45
2022/08/04 06:57:25;;;;;;;4.00;2.25;;;25.90;94.40;;;;;;5107085;28;20391;-44
2022/08/04 06:59:57;;;;;;;3.80;1.80;;;26.00;94.30;;;;;;5106564;28;20024;-43
2022/08/04 07:02:26;;;;;;;3.30;1.70;;;26.10;94.30;;;;;;5105609;28;20019;-44
2022/08/04 07:04:52;;;;;;;3.28;1.70;;;26.10;94.20;;;;;;5105919;28;20092;-44
2022/08/04 07:07:18;;;;;;;2.90;1.75;;;26.10;94.10;;;;;;5106491;28;20537;-45
2022/08/04 07:09:44;;;;;;;2.75;1.70;;;26.20;94.10;;;;;;5104958;28;20063;-45
2022/08/04 07:12:10;;;;;;;3.25;1.85;;;26.20;94.00;;;;;;5106382;28;20435;-44
2022/08/04 07:14:36;;;;;;;3.17;1.60;;;26.30;94.00;;;;;;5106248;28;20012;-44
2022/08/04 07:17:07;;;;;;;3.72;1.90;;;26.30;94.10;;;;;;5104921;28;20028;-44
2022/08/04 07:19:34;;;;;;;3.85;1.75;;;26.40;94.20;;;;;;5103972;28;20427;-43
2022/08/04 07:22:00;;;;;;;2.65;1.50;;;26.40;94.20;;;;;;5105057;28;20341;-44
2022/08/04 07:24:36;;;;;;;2.80;1.70;;;26.50;94.20;;;;;;5105773;28;20273;-45
2022/08/04 07:27:03;;;;;;;2.65;1.60;;;26.50;94.00;;;;;;5104488;28;20048;-45
2022/08/04 07:29:31;;;;;;;3.03;1.90;;;26.60;94.00;;;;;;5104447;28;20050;-44
2022/08/04 07:31:58;;;;;;;2.50;1.50;;;26.60;93.90;;;;;;5105561;28;20079;-45
2022/08/04 07:34:25;;;;;;;2.55;1.52;;;26.70;93.80;;;;;;5104852;28;20065;-45
2022/08/04 07:36:53;;;;;;;2.92;1.30;;;26.80;93.70;;;;;;5104938;28;20032;-45
2022/08/04 07:39:20;;;;;;;2.80;1.88;;;26.90;93.70;;;;;;5104866;28;20024;-44
2022/08/04 07:41:46;;;;;;;3.55;1.30;;;27.00;93.70;;;;;;5104812;28;20024;-44
2022/08/04 07:44:14;;;;;;;3.20;1.70;;;27.00;93.60;;;;;;5104918;28;20028;-44
2022/08/04 07:46:40;;;;;;;2.00;1.45;;;27.10;93.60;;;;;;5105733;28;20165;-44
2022/08/04 07:49:06;;;;;;;1.98;1.35;;;27.20;93.50;;;;;;5105089;28;20047;-44
2022/08/04 07:51:34;;;;;;;2.05;1.52;;;27.30;93.40;;;;;;5105067;28;20161;-44
2022/08/04 07:54:02;;;;;;;1.50;1.20;;;27.40;93.20;;;;;;5105302;28;20024;-44
2022/08/04 07:56:28;;;;;;;3.58;1.55;;;27.50;93.00;;;;;;5109019;28;20034;-45
2022/08/04 07:58:55;;;;;;;3.05;1.30;;;27.50;92.80;;;;;;5108353;28;20019;-44
2022/08/04 08:01:24;;;;;;;2.72;1.35;;;27.50;92.70;;;;;;5109337;28;20035;-44
2022/08/04 08:03:52;;;;;;;2.33;1.40;;;27.60;92.50;;;;;;5108703;28;20491;-44
2022/08/04 08:06:17;;;;;;;1.40;0.85;;;27.60;92.40;;;;;;5109286;28;20036;-44
2022/08/04 08:08:43;;;;;;;1.83;1.30;;;27.70;92.20;;;;;;5107979;28;20790;-44
2022/08/04 08:11:09;;;;;;;4.63;2.00;;;27.80;92.10;;;;;;5109468;28;20031;-44
2022/08/04 08:13:36;;;;;;;4.15;1.63;;;27.80;92.00;;;;;;5109038;28;20104;-46
2022/08/04 08:16:02;;;;;;;2.45;1.38;;;27.80;91.70;;;;;;5109086;28;20166;-43
2022/08/04 08:18:29;;;;;;;2.95;1.73;;;27.80;91.60;;;;;;5108116;28;20084;-45
2022/08/04 08:20:55;;;;;;;2.85;1.30;;;27.80;91.40;;;;;;5109010;28;20164;-45
2022/08/04 08:23:21;;;;;;;1.70;1.25;;;27.80;91.20;;;;;;5109904;28;20024;-44
2022/08/04 08:25:46;;;;;;;3.58;1.52;;;27.90;91.20;;;;;;5107942;28;20023;-44
2022/08/04 08:28:12;;;;;;;3.92;1.52;;;28.00;91.00;;;;;;5108708;28;20051;-44
2022/08/04 08:30:38;;;;;;;3.35;1.20;;;28.00;91.00;;;;;;5109044;28;20118;-44
2022/08/04 08:33:06;;;;;;;6.28;1.55;;;28.10;91.10;;;;;;5108164;28;20023;-44
2022/08/04 08:35:56;;;;;;;2.78;1.77;;;28.10;91.10;;;;;;5108467;28;20027;-45
2022/08/04 08:38:35;;;;;;;2.50;1.30;;;28.10;91.20;;;;;;5089093;28;20024;-45
2022/08/04 08:41:16;;;;;;;4.45;1.38;;;28.20;91.30;;;;;;5104347;28;20035;-44
2022/08/04 08:44:10;;;;;;;3.45;1.17;;;28.20;91.20;;;;;;5088039;28;20028;-45
2022/08/04 08:47:01;;;;;;;2.45;1.58;;;28.20;91.10;;;;;;5083447;28;20042;-45
2022/08/04 08:50:15;;;;;;;3.88;1.40;;;28.30;91.20;;;;;;5108628;28;20123;-45
2022/08/04 08:53:12;;;;;;;6.00;1.73;;;28.30;91.20;;;;;;5098623;28;20040;-44
2022/08/04 08:55:51;;;;;;;2.88;1.63;;;28.30;91.00;;;;;;5108434;28;20035;-44
2022/08/04 08:58:44;;;;;;;4.45;1.73;;;28.30;91.10;;;;;;5109597;28;20108;-45
2022/08/04 09:02:02;;;;;;;5.28;2.00;;;28.30;90.80;;;;;;5108020;28;20383;-44
2022/08/04 09:04:53;;;;;;;2.92;1.45;;;28.30;90.70;;;;;;5022185;28;20028;-44
2022/08/04 09:07:46;;;;;;;3.15;1.83;;;28.30;90.70;;;;;;5106740;28;20143;-45
2022/08/04 09:10:32;;;;;;;6.20;2.10;;;28.40;90.50;;;;;;5108291;28;20162;-45
2022/08/04 09:13:09;;;;;;;4.47;2.20;;;28.40;90.40;;;;;;5106073;28;20130;-43
2022/08/04 09:16:10;;;;;;;3.78;2.10;;;28.50;90.50;;;;;;5107284;28;21026;-44
2022/08/04 09:18:45;;;;;;;6.93;2.58;;;28.50;90.30;;;;;;5098632;28;20081;-44
2022/08/04 09:21:37;;;;;;;7.05;2.88;;;28.50;90.20;;;;;;5108644;28;20015;-43
2022/08/04 09:24:13;;;;;;;6.70;2.93;;;28.40;90.20;;;;;;5089956;28;20040;-44
2022/08/04 09:26:47;;;;;;;5.72;3.40;;;28.40;90.40;;;;;;5107347;28;20043;-44
2022/08/04 09:29:40;;;;;;;3.70;2.50;;;28.30;90.40;;;;;;5107067;28;20567;-45
2022/08/04 09:32:45;;;;;;;3.88;2.38;;;28.20;90.60;;;;;;5107954;28;20042;-44
2022/08/04 09:35:39;;;;;;;5.60;2.50;;;28.20;90.80;;;;;;5108001;28;20151;-45
2022/08/04 09:38:28;;;;;;;4.50;2.75;;;28.20;90.90;;;;;;5107536;28;20034;-44
2022/08/04 09:41:15;;;;;;;3.08;2.30;;;28.20;90.90;;;;;;5107480;28;20019;-45
2022/08/04 09:44:05;;;;;;;4.93;2.70;;;28.30;90.70;;;;;;5106022;28;20032;-43
2022/08/04 09:47:02;;;;;;;5.47;2.30;;;28.20;90.60;;;;;;5107365;28;20073;-44
2022/08/04 09:49:38;;;;;;;4.97;2.00;;;28.20;90.70;;;;;;5096062;28;20092;-45
2022/08/04 09:52:29;;;;;;;2.38;1.85;;;28.20;90.70;;;;;;5107338;28;20107;-43
2022/08/04 09:55:10;;;;;;;6.20;1.90;;;28.30;90.30;;;;;;5074441;28;20047;-45
2022/08/04 09:57:51;;;;;;;4.32;2.08;;;28.40;90.20;;;;;;5106369;28;20494;-44
2022/08/04 10:00:19;;;;;;;3.05;1.65;;;28.40;90.20;;;;;;5107290;28;20031;-44
2022/08/04 10:03:06;;;;;;;2.78;1.38;;;28.50;90.30;;;;;;5106671;28;20464;-44
2022/08/04 10:05:58;;;;;;;4.60;1.90;;;28.50;90.10;;;;;;5106319;28;20038;-44
2022/08/04 10:09:12;;;;;;;3.17;1.70;;;28.60;89.40;;;;;;5106795;28;20023;-44
2022/08/04 10:11:50;;;;;;;3.85;1.40;;;28.60;89.40;;;;;;5085827;28;20036;-44
2022/08/04 10:14:37;;;;;;;3.58;1.40;;;28.70;89.30;;;;;;5104338;28;20028;-44
2022/08/04 10:17:33;;;;;;;4.10;1.40;;;28.70;89.10;;;;;;5106943;28;20032;-45
2022/08/04 10:20:18;;;;;;;2.13;1.10;;;28.60;88.70;;;;;;5102960;28;20135;-44
2022/08/04 10:23:16;;;;;;;1.45;1.00;;;28.60;88.60;;;;;;5106563;28;20081;-44
2022/08/04 10:26:04;;;;;;;2.70;1.40;;;28.60;87.90;;;;;;5056840;28;20089;-45
2022/08/04 10:28:36;;;;;;;4.43;1.50;;;28.60;88.20;;;;;;5106737;28;20642;-44
2022/08/04 10:31:07;;;;;;;3.95;1.52;;;28.50;88.10;;;;;;5106017;28;20019;-44
2022/08/04 10:33:46;;;;;;;3.70;2.05;;;28.50;88.40;;;;;;5105393;28;20020;-45
2022/08/04 10:36:18;;;;;;;3.65;1.60;;;28.50;88.40;;;;;;5107147;28;20463;-44
2022/08/04 10:39:02;;;;;;;3.95;1.67;;;28.40;88.60;;;;;;5105353;28;20596;-44
2022/08/04 10:41:34;;;;;;;4.22;1.50;;;28.30;88.60;;;;;;5106101;28;20506;-44
2022/08/04 10:44:23;;;;;;;4.15;1.42;;;28.20;89.20;;;;;;5106034;28;20114;-44
2022/08/04 10:46:57;;;;;;;2.45;1.73;;;28.10;89.70;;;;;;5105479;28;20023;-44
2022/08/04 10:49:42;;;;;;;5.40;1.95;;;28.00;90.00;;;;;;5106358;28;20051;-44
2022/08/04 10:52:19;;;;;;;9.15;2.17;;;28.00;90.10;;;;;;5106443;28;20070;-43
2022/08/04 10:55:05;;;;;;;4.45;1.63;;;27.80;90.20;;;;;;5105259;28;20035;-44
2022/08/04 10:57:42;;;;;;;2.90;1.48;;;27.70;90.60;;;;;;5085926;28;20024;-44
2022/08/04 11:00:18;;;;;;;3.95;1.40;;;27.50;90.90;;;;;;5097349;28;20372;-44
2022/08/04 11:02:52;;;;;;;5.40;1.77;;;27.30;91.40;;;;;;5105744;28;20038;-45
2022/08/04 11:05:51;;;;;;;3.92;1.70;;;27.10;92.20;;;;;;5107162;28;20020;-44
2022/08/04 11:08:30;;;;;;;4.72;1.80;;;26.90;92.80;;;;;;5105498;28;20039;-44
2022/08/04 11:11:25;;;;;;;4.82;1.55;;;26.70;93.10;;;;;;5105961;28;20042;-44
2022/08/04 11:14:01;;;;;;;5.20;1.50;;;26.50;93.50;;;;;;5085430;28;20024;-44
2022/08/04 11:16:36;;;;;;;2.67;1.40;;;26.40;93.90;;;;;;5104380;28;20062;-45
2022/08/04 11:19:24;;;;;;;4.32;2.00;;;26.30;94.20;;;;;;5105957;28;20022;-45
2022/08/04 11:21:56;;;;;;;2.75;1.33;;;26.20;94.80;;;;;;5104427;28;20022;-45
2022/08/04 11:24:37;;;;;;;3.90;1.38;;;26.10;95.10;;;;;;5106721;28;20039;-44
2022/08/04 11:27:09;;;;;;;3.33;2.93;;;26.10;95.50;;;;;;5104465;28;20047;-44
2022/08/04 11:29:50;;;;;;;3.85;2.17;;;26.00;95.60;;;;;;5105848;28;20024;-48
2022/08/04 11:32:50;;;;;;;4.38;2.00;;;26.00;95.70;;;;;;5109710;28;20028;-45
2022/08/04 11:35:27;;;;;;;3.72;1.90;;;26.10;96.00;;;;;;5109685;28;20066;-44
2022/08/04 11:38:32;;;;;;;6.50;2.05;;;26.10;96.10;;;;;;5110207;28;20023;-45
2022/08/04 11:41:04;;;;;;;5.38;1.90;;;26.10;96.30;;;;;;5110075;28;20541;-44
2022/08/04 11:43:35;;;;;;;;;;;26.10;96.40;;;;;;5109488;28;20099;-45
2022/08/04 11:46:08;;;;;;;2.43;1.70;;;26.10;96.40;;;;;;5109924;28;19908;-44
2022/08/04 11:48:39;;;;;;;1.95;1.40;;;26.10;96.50;;;;;;5110322;28;20031;-44
2022/08/04 11:51:05;;;;;;;3.30;1.50;;;26.10;96.70;;;;;;5109452;28;20030;-44
2022/08/04 11:53:36;;;;;;;2.92;1.65;;;26.10;97.00;;;;;;5098656;28;20028;-45
2022/08/04 11:56:04;;;;;;;2.83;1.58;;;26.10;97.50;;;;;;5109047;28;20470;-45
2022/08/04 11:58:31;;;;;;;3.13;1.70;;;26.10;97.40;;;;;;5109775;28;20063;-44
2022/08/04 12:01:04;;;;;;;2.35;1.40;;;26.10;97.60;;;;;;5109708;28;20028;-45
2022/08/04 12:03:51;;;;;;;2.92;1.38;;;26.10;97.50;;;;;;5106372;28;20019;-45
2022/08/04 12:06:31;;;;;;;3.65;1.83;;;26.00;97.50;;;;;;5110466;28;20043;-43
2022/08/04 12:09:19;;;;;;;3.80;1.25;;;26.10;97.50;;;;;;5109475;28;20026;-44
2022/08/04 12:11:50;;;;;;;2.15;1.42;;;26.20;97.40;;;;;;5108483;28;20814;-44
2022/08/04 12:14:39;;;;;;;2.85;1.52;;;26.30;97.40;;;;;;5099596;28;20059;-44
2022/08/04 12:17:06;;;;;;;3.65;1.58;;;26.30;97.30;;;;;;5109439;28;20036;-43
2022/08/04 12:19:53;;;;;;;2.00;1.20;;;26.30;97.20;;;;;;5109032;28;20016;-44
2022/08/04 12:22:23;;;;;;;2.55;1.42;;;26.30;97.30;;;;;;5109578;28;20015;-44
2022/08/04 12:25:07;;;;;;;1.75;1.10;;;26.30;97.30;;;;;;5108574;28;20119;-45
2022/08/04 12:27:40;;;;;;;1.75;1.30;;;26.40;97.30;;;;;;5108672;28;20562;-44
2022/08/04 12:30:07;;;;;;;2.03;1.25;;;26.40;97.20;;;;;;5108837;28;20046;-44
2022/08/04 12:32:40;;;;;;;3.60;1.40;;;26.50;97.10;;;;;;5107842;28;20024;-44
2022/08/04 12:35:10;;;;;;;3.03;1.23;;;26.50;97.10;;;;;;5108863;28;20038;-45
2022/08/04 12:38:01;;;;;;;2.72;1.35;;;26.60;97.00;;;;;;5108857;28;20023;-44
2022/08/04 12:40:38;;;;;;;2.00;1.33;;;26.50;97.10;;;;;;5100012;28;20493;-45
2022/08/04 12:43:18;;;;;;;2.95;1.52;;;26.50;97.10;;;;;;5107981;28;20414;-45
2022/08/04 12:45:50;;;;;;;3.70;1.60;;;26.40;97.30;;;;;;5107792;28;20031;-44
2022/08/04 12:48:17;;;;;;;3.38;1.98;;;26.40;97.50;;;;;;5108929;28;20451;-45
2022/08/04 12:50:52;;;;;;;2.92;1.60;;;26.30;97.60;;;;;;5109327;28;20034;-43
2022/08/04 12:53:22;;;;;;;3.67;1.70;;;26.20;97.70;;;;;;5108101;28;20098;-44
2022/08/04 12:55:50;;;;;;;2.72;1.80;;;26.20;97.70;;;;;;5108453;28;20036;-44
2022/08/04 12:58:18;;;;;;;2.25;1.65;;;26.20;97.60;;;;;;5108756;28;20020;-45
2022/08/04 13:00:53;;;;;;;3.47;1.30;;;26.30;97.50;;;;;;5107445;28;20108;-43
2022/08/04 13:03:22;;;;;;;4.10;1.70;;;26.30;97.20;;;;;;5108723;28;20103;-44
2022/08/04 13:05:53;;;;;;;4.43;1.90;;;26.30;96.90;;;;;;5108134;28;20038;-44
2022/08/04 13:08:19;;;;;;;2.13;1.52;;;26.30;96.90;;;;;;5108494;28;20032;-44
2022/08/04 13:10:47;;;;;;;1.80;1.50;;;26.40;96.90;;;;;;5107901;28;20020;-44
2022/08/04 13:13:26;;;;;;;1.77;1.30;;;26.40;96.60;;;;;;5108621;28;20016;-44
2022/08/04 13:16:00;;;;;;;2.30;1.30;;;26.50;96.50;;;;;;5104724;28;20050;-44
2022/08/04 13:18:28;;;;;;;2.65;1.23;;;26.60;96.20;;;;;;5107943;28;20019;-43
2022/08/04 13:20:55;;;;;;;1.60;1.50;;;26.80;96.00;;;;;;5107670;28;20069;-44
2022/08/04 13:23:26;;;;;;;1.95;1.30;;;26.90;95.80;;;;;;5108550;28;20115;-44
2022/08/04 13:25:54;;;;;;;1.80;1.10;;;27.00;95.60;;;;;;5107683;28;20073;-44
2022/08/04 13:28:25;;;;;;;3.50;1.20;;;27.10;95.50;;;;;;5108203;28;20039;-44
2022/08/04 13:31:01;;;;;;;1.88;1.20;;;27.20;95.20;;;;;;5107367;28;20153;-44
2022/08/04 13:33:32;;;;;;;5.28;2.08;;;27.40;95.10;;;;;;5107913;28;20026;-44
2022/08/04 13:35:58;;;;;;;2.05;1.40;;;27.40;94.50;;;;;;5107020;28;20067;-43
2022/08/04 13:38:26;;;;;;;4.18;1.58;;;27.40;94.40;;;;;;5108061;28;20027;-44